sensor_id;sensor_type;location;lat;lon;timestamp;pressure;altitude;pressure_sealevel;temperature;humidity
49627;BME280;35527;54.616;39.786;2022-11-02T00:01:29;99681.81;;;0.21;100.00
49627;BME280;35527;54.616;39.786;2022-11-02T00:04:28;99656.34;;;0.07;100.00
49627;BME280;35527;54.616;39.786;2022-11-02T00:07:30;99681.78;;;0.22;100.00
49627;BME280;35527;54.616;39.786;2022-11-02T00:10:34;99685.19;;;0.25;100.00
49627;BME280;35527;54.616;39.786;2022-11-02T00:13:38;99687.72;;;0.25;100.00
49627;BME280;35527;54.616;39.786;2022-11-02T00:16:41;99683.50;;;0.25;100.00
49627;BME280;35527;54.616;39.786;2022-11-02T00:19:46;99668.22;;;0.22;100.00
49627;BME280;35527;54.616;39.786;2022-11-02T00:22:51;99681.81;;;0.27;100.00
49627;BME280;35527;54.616;39.786;2022-11-02T00:26:00;99686.91;;;0.29;100.00
49627;BME280;35527;54.616;39.786;2022-11-02T00:29:06;99671.63;;;0.24;100.00
49627;BME280;35527;54.616;39.786;2022-11-02T00:32:09;99659.75;;;0.18;100.00
49627;BME280;35527;54.616;39.786;2022-11-02T00:35:14;99661.44;;;0.13;100.00
49627;BME280;35527;54.616;39.786;2022-11-02T00:38:18;99673.31;;;0.27;100.00
49627;BME280;35527;54.616;39.786;2022-11-02T00:41:22;99647.00;;;0.14;100.00
49627;BME280;35527;54.616;39.786;2022-11-02T00:44:24;99658.88;;;0.19;100.00
49627;BME280;35527;54.616;39.786;2022-11-02T00:47:30;99673.31;;;0.25;100.00
49627;BME280;35527;54.616;39.786;2022-11-02T00:50:34;99647.00;;;0.11;100.00
49627;BME280;35527;54.616;39.786;2022-11-02T00:53:38;99662.28;;;0.20;100.00
49627;BME280;35527;54.616;39.786;2022-11-02T00:56:42;99653.81;;;0.12;100.00
49627;BME280;35527;54.616;39.786;2022-11-02T00:59:46;99657.22;;;0.23;100.00
49627;BME280;35527;54.616;39.786;2022-11-02T01:02:51;99642.78;;;0.14;100.00
49627;BME280;35527;54.616;39.786;2022-11-02T01:05:54;99660.59;;;0.24;100.00
49627;BME280;35527;54.616;39.786;2022-11-02T01:08:56;99630.03;;;0.02;100.00
49627;BME280;35527;54.616;39.786;2022-11-02T01:11:59;99652.09;;;0.20;100.00
49627;BME280;35527;54.616;39.786;2022-11-02T01:15:06;99647.03;;;0.23;100.00
49627;BME280;35527;54.616;39.786;2022-11-02T01:18:12;99649.56;;;0.25;100.00
49627;BME280;35527;54.616;39.786;2022-11-02T01:21:17;99637.69;;;0.11;100.00
49627;BME280;35527;54.616;39.786;2022-11-02T01:24:21;99662.28;;;0.25;100.00
49627;BME280;35527;54.616;39.786;2022-11-02T01:27:25;99619.88;;;-0.04;100.00
49627;BME280;35527;54.616;39.786;2022-11-02T01:30:28;99638.53;;;0.06;100.00
49627;BME280;35527;54.616;39.786;2022-11-02T01:33:32;99658.88;;;0.19;100.00
49627;BME280;35527;54.616;39.786;2022-11-02T01:36:35;99647.84;;;0.11;100.00
49627;BME280;35527;54.616;39.786;2022-11-02T01:39:43;99633.44;;;0.06;100.00
49627;BME280;35527;54.616;39.786;2022-11-02T01:42:45;99636.84;;;0.09;100.00
49627;BME280;35527;54.616;39.786;2022-11-02T01:45:59;99631.75;;;0.09;100.00
49627;BME280;35527;54.616;39.786;2022-11-02T01:49:13;99630.91;;;0.04;100.00
49627;BME280;35527;54.616;39.786;2022-11-02T01:52:42;99644.47;;;0.20;100.00
49627;BME280;35527;54.616;39.786;2022-11-02T01:55:46;99650.44;;;0.17;100.00
49627;BME280;35527;54.616;39.786;2022-11-02T01:58:58;99635.16;;;0.10;100.00
49627;BME280;35527;54.616;39.786;2022-11-02T02:02:04;99644.47;;;0.09;100.00
49627;BME280;35527;54.616;39.786;2022-11-02T02:05:16;99632.59;;;0.02;100.00
49627;BME280;35527;54.616;39.786;2022-11-02T02:08:22;99658.03;;;0.13;100.00
49627;BME280;35527;54.616;39.786;2022-11-02T02:11:35;99648.72;;;0.12;100.00
49627;BME280;35527;54.616;39.786;2022-11-02T02:14:39;99653.78;;;0.04;100.00
49627;BME280;35527;54.616;39.786;2022-11-02T02:17:59;99640.22;;;0.02;100.00
49627;BME280;35527;54.616;39.786;2022-11-02T02:32:12;99649.56;;;0.06;100.00
49627;BME280;35527;54.616;39.786;2022-11-02T02:38:51;99654.63;;;0.02;100.00
49627;BME280;35527;54.616;39.786;2022-11-02T02:42:03;99656.31;;;-0.01;100.00
49627;BME280;35527;54.616;39.786;2022-11-02T02:45:28;99665.69;;;0.10;100.00
49627;BME280;35527;54.616;39.786;2022-11-02T02:48:36;99667.38;;;0.05;100.00
49627;BME280;35527;54.616;39.786;2022-11-02T02:51:42;99641.91;;;-0.09;100.00
49627;BME280;35527;54.616;39.786;2022-11-02T02:54:51;99651.22;;;-0.07;100.00
49627;BME280;35527;54.616;39.786;2022-11-02T02:58:01;99662.28;;;0.05;100.00
49627;BME280;35527;54.616;39.786;2022-11-02T03:01:06;99655.47;;;0.02;100.00
49627;BME280;35527;54.616;39.786;2022-11-02T03:04:14;99655.47;;;0.02;100.00
49627;BME280;35527;54.616;39.786;2022-11-02T03:07:38;99656.31;;;0.06;100.00
49627;BME280;35527;54.616;39.786;2022-11-02T03:18:36;99635.16;;;0.07;100.00
49627;BME280;35527;54.616;39.786;2022-11-02T03:21:43;99621.56;;;-0.05;100.00
49627;BME280;35527;54.616;39.786;2022-11-02T03:25:14;99635.13;;;0.08;100.00
49627;BME280;35527;54.616;39.786;2022-11-02T03:32:29;99643.63;;;0.04;100.00
49627;BME280;35527;54.616;39.786;2022-11-02T03:35:45;99636.00;;;0.01;100.00
49627;BME280;35527;54.616;39.786;2022-11-02T03:38:59;99641.06;;;-0.01;100.00
49627;BME280;35527;54.616;39.786;2022-11-02T03:42:04;99650.41;;;0.07;100.00
49627;BME280;35527;54.616;39.786;2022-11-02T03:45:19;99637.69;;;0.02;100.00
49627;BME280;35527;54.616;39.786;2022-11-02T03:48:30;99647.84;;;0.08;100.00
49627;BME280;35527;54.616;39.786;2022-11-02T03:51:37;99635.13;;;-0.01;100.00
49627;BME280;35527;54.616;39.786;2022-11-02T03:54:50;99624.97;;;-0.06;100.00
49627;BME280;35527;54.616;39.786;2022-11-02T03:57:56;99632.59;;;-0.01;100.00
49627;BME280;35527;54.616;39.786;2022-11-02T04:01:06;99639.38;;;0.02;100.00
49627;BME280;35527;54.616;39.786;2022-11-02T04:04:13;99614.78;;;-0.16;100.00
49627;BME280;35527;54.616;39.786;2022-11-02T04:07:23;99626.63;;;-0.06;100.00
49627;BME280;35527;54.616;39.786;2022-11-02T04:10:28;99638.53;;;-0.07;100.00
49627;BME280;35527;54.616;39.786;2022-11-02T04:13:33;99624.94;;;-0.09;100.00
49627;BME280;35527;54.616;39.786;2022-11-02T04:17:00;99643.59;;;-0.04;100.00
49627;BME280;35527;54.616;39.786;2022-11-02T04:20:26;99640.22;;;-0.06;100.00
49627;BME280;35527;54.616;39.786;2022-11-02T04:23:28;99630.88;;;-0.20;100.00
49627;BME280;35527;54.616;39.786;2022-11-02T04:26:56;99636.84;;;-0.08;100.00
49627;BME280;35527;54.616;39.786;2022-11-02T04:30:02;99619.00;;;-0.18;100.00
49627;BME280;35527;54.616;39.786;2022-11-02T04:33:07;99627.47;;;-0.12;100.00
49627;BME280;35527;54.616;39.786;2022-11-02T04:36:39;99615.63;;;-0.19;100.00
49627;BME280;35527;54.616;39.786;2022-11-02T04:39:43;99630.03;;;-0.04;100.00
49627;BME280;35527;54.616;39.786;2022-11-02T04:42:48;99638.53;;;-0.02;100.00
49627;BME280;35527;54.616;39.786;2022-11-02T04:45:56;99584.22;;;-0.32;100.00
49627;BME280;35527;54.616;39.786;2022-11-02T04:49:01;99629.19;;;-0.08;100.00
49627;BME280;35527;54.616;39.786;2022-11-02T04:52:06;99628.34;;;-0.04;100.00
49627;BME280;35527;54.616;39.786;2022-11-02T04:55:10;99619.84;;;-0.09;100.00
49627;BME280;35527;54.616;39.786;2022-11-02T04:58:14;99627.50;;;-0.04;100.00
49627;BME280;35527;54.616;39.786;2022-11-02T05:01:19;99625.81;;;-0.08;100.00
49627;BME280;35527;54.616;39.786;2022-11-02T05:04:23;99580.84;;;-0.38;100.00
49627;BME280;35527;54.616;39.786;2022-11-02T05:07:27;99617.31;;;-0.19;100.00
49627;BME280;35527;54.616;39.786;2022-11-02T05:10:30;99634.28;;;-0.12;100.00
49627;BME280;35527;54.616;39.786;2022-11-02T05:13:33;99622.41;;;-0.07;100.00
49627;BME280;35527;54.616;39.786;2022-11-02T05:16:41;99609.69;;;-0.18;100.00
49627;BME280;35527;54.616;39.786;2022-11-02T05:19:46;99613.06;;;-0.16;100.00
49627;BME280;35527;54.616;39.786;2022-11-02T05:22:49;99634.28;;;-0.06;100.00
49627;BME280;35527;54.616;39.786;2022-11-02T05:25:55;99641.06;;;-0.04;100.00
49627;BME280;35527;54.616;39.786;2022-11-02T05:29:00;99636.81;;;-0.06;100.00
49627;BME280;35527;54.616;39.786;2022-11-02T05:32:04;99624.94;;;-0.09;100.00
49627;BME280;35527;54.616;39.786;2022-11-02T05:35:08;99636.81;;;-0.06;100.00
49627;BME280;35527;54.616;39.786;2022-11-02T05:38:12;99617.31;;;-0.24;100.00
49627;BME280;35527;54.616;39.786;2022-11-02T05:41:18;99639.38;;;-0.08;100.00
49627;BME280;35527;54.616;39.786;2022-11-02T05:44:29;99629.19;;;-0.17;100.00
49627;BME280;35527;54.616;39.786;2022-11-02T05:47:33;99625.78;;;-0.10;100.00
49627;BME280;35527;54.616;39.786;2022-11-02T05:50:37;99629.19;;;-0.08;100.00
49627;BME280;35527;54.616;39.786;2022-11-02T05:53:43;99634.31;;;0.00;100.00
49627;BME280;35527;54.616;39.786;2022-11-02T05:56:46;99630.06;;;0.07;100.00
49627;BME280;35527;54.616;39.786;2022-11-02T05:59:49;99644.47;;;0.03;100.00
49627;BME280;35527;54.616;39.786;2022-11-02T06:02:56;99636.84;;;0.03;100.00
49627;BME280;35527;54.616;39.786;2022-11-02T06:06:05;99629.19;;;-0.02;100.00
49627;BME280;35527;54.616;39.786;2022-11-02T06:09:09;99638.56;;;0.09;100.00
49627;BME280;35527;54.616;39.786;2022-11-02T06:12:12;99620.72;;;-0.11;100.00
49627;BME280;35527;54.616;39.786;2022-11-02T06:15:15;99619.84;;;-0.12;100.00
49627;BME280;35527;54.616;39.786;2022-11-02T06:18:23;99648.72;;;0.19;100.00
49627;BME280;35527;54.616;39.786;2022-11-02T06:21:26;99634.28;;;0.11;100.00
49627;BME280;35527;54.616;39.786;2022-11-02T06:24:31;99644.50;;;0.23;100.00
49627;BME280;35527;54.616;39.786;2022-11-02T06:27:33;99628.38;;;0.24;100.00
49627;BME280;35527;54.616;39.786;2022-11-02T06:30:42;99642.78;;;0.36;100.00
49627;BME280;35527;54.616;39.786;2022-11-02T06:33:49;99619.03;;;0.23;100.00
49627;BME280;35527;54.616;39.786;2022-11-02T06:36:52;99627.50;;;0.30;100.00
49627;BME280;35527;54.616;39.786;2022-11-02T06:39:56;99632.59;;;0.19;100.00
49627;BME280;35527;54.616;39.786;2022-11-02T06:43:00;99634.28;;;0.14;100.00
49627;BME280;35527;54.616;39.786;2022-11-02T06:46:17;99627.50;;;0.07;100.00
49627;BME280;35527;54.616;39.786;2022-11-02T06:49:19;99622.44;;;0.07;100.00
49627;BME280;35527;54.616;39.786;2022-11-02T06:52:22;99637.69;;;0.24;100.00
49627;BME280;35527;54.616;39.786;2022-11-02T06:55:28;99631.75;;;0.25;100.00
49627;BME280;35527;54.616;39.786;2022-11-02T06:58:31;99609.69;;;0.10;100.00
49627;BME280;35527;54.616;39.786;2022-11-02T07:01:35;99598.69;;;0.05;100.00
49627;BME280;35527;54.616;39.786;2022-11-02T07:04:39;99609.69;;;0.22;100.00
49627;BME280;35527;54.616;39.786;2022-11-02T07:07:44;99601.22;;;0.14;100.00
49627;BME280;35527;54.616;39.786;2022-11-02T07:10:47;99635.13;;;0.36;100.00
49627;BME280;35527;54.616;39.786;2022-11-02T07:13:51;99604.59;;;0.22;100.00
49627;BME280;35527;54.616;39.786;2022-11-02T07:16:55;99612.25;;;0.19;100.00
49627;BME280;35527;54.616;39.786;2022-11-02T07:20:01;99613.91;;;0.34;100.00
49627;BME280;35527;54.616;39.786;2022-11-02T07:23:08;99625.78;;;0.49;100.00
49627;BME280;35527;54.616;39.786;2022-11-02T07:26:11;99591.03;;;0.26;100.00
49627;BME280;35527;54.616;39.786;2022-11-02T07:29:15;99624.09;;;0.54;100.00
49627;BME280;35527;54.616;39.786;2022-11-02T07:32:19;99606.28;;;0.49;100.00
49627;BME280;35527;54.616;39.786;2022-11-02T07:35:22;99622.38;;;0.63;100.00
49627;BME280;35527;54.616;39.786;2022-11-02T07:38:26;99625.75;;;0.76;100.00
49627;BME280;35527;54.616;39.786;2022-11-02T07:41:30;99603.69;;;0.71;100.00
49627;BME280;35527;54.616;39.786;2022-11-02T07:44:33;99614.75;;;0.63;100.00
49627;BME280;35527;54.616;39.786;2022-11-02T07:47:46;99628.31;;;0.67;100.00
49627;BME280;35527;54.616;39.786;2022-11-02T07:50:49;99612.16;;;0.68;100.00
49627;BME280;35527;54.616;39.786;2022-11-02T07:53:52;99628.28;;;0.84;100.00
49627;BME280;35527;54.616;39.786;2022-11-02T07:56:58;99606.25;;;0.58;100.00
49627;BME280;35527;54.616;39.786;2022-11-02T08:00:01;99593.53;;;0.48;100.00
49627;BME280;35527;54.616;39.786;2022-11-02T08:03:12;99626.59;;;0.74;100.00
49627;BME280;35527;54.616;39.786;2022-11-02T08:06:17;99618.13;;;0.75;100.00
49627;BME280;35527;54.616;39.786;2022-11-02T08:09:24;99629.13;;;0.86;100.00
49627;BME280;35527;54.616;39.786;2022-11-02T08:12:29;99613.91;;;0.66;100.00
49627;BME280;35527;54.616;39.786;2022-11-02T08:15:31;99641.03;;;0.76;100.00
49627;BME280;35527;54.616;39.786;2022-11-02T08:18:34;99640.22;;;0.63;100.00
49627;BME280;35527;54.616;39.786;2022-11-02T08:21:38;99637.66;;;0.45;100.00
49627;BME280;35527;54.616;39.786;2022-11-02T08:24:42;99635.97;;;0.45;100.00
49627;BME280;35527;54.616;39.786;2022-11-02T08:27:44;99626.66;;;0.41;100.00
49627;BME280;35527;54.616;39.786;2022-11-02T08:30:47;99630.00;;;0.54;100.00
49627;BME280;35527;54.616;39.786;2022-11-02T08:33:52;99618.16;;;0.45;100.00
49627;BME280;35527;54.616;39.786;2022-11-02T08:36:56;99631.75;;;0.38;100.00
49627;BME280;35527;54.616;39.786;2022-11-02T08:39:59;99637.69;;;0.39;100.00
49627;BME280;35527;54.616;39.786;2022-11-02T08:43:11;99636.00;;;0.52;100.00
49627;BME280;35527;54.616;39.786;2022-11-02T08:46:15;99613.94;;;0.43;100.00
49627;BME280;35527;54.616;39.786;2022-11-02T08:49:19;99643.63;;;0.52;100.00
49627;BME280;35527;54.616;39.786;2022-11-02T08:52:22;99653.81;;;0.47;100.00
49627;BME280;35527;54.616;39.786;2022-11-02T08:55:27;99643.59;;;0.42;100.00
49627;BME280;35527;54.616;39.786;2022-11-02T08:58:36;99641.06;;;0.39;100.00
49627;BME280;35527;54.616;39.786;2022-11-02T09:01:43;99635.13;;;0.34;100.00
49627;BME280;35527;54.616;39.786;2022-11-02T09:04:46;99635.97;;;0.45;100.00
49627;BME280;35527;54.616;39.786;2022-11-02T09:07:55;99613.09;;;0.30;100.00
49627;BME280;35527;54.616;39.786;2022-11-02T09:11:03;99621.56;;;0.37;100.00
49627;BME280;35527;54.616;39.786;2022-11-02T09:14:08;99641.91;;;0.52;100.00
49627;BME280;35527;54.616;39.786;2022-11-02T09:17:11;99619.84;;;0.48;100.00
49627;BME280;35527;54.616;39.786;2022-11-02T09:20:17;99614.78;;;0.47;100.00
49627;BME280;35527;54.616;39.786;2022-11-02T09:23:21;99635.09;;;0.65;100.00
49627;BME280;35527;54.616;39.786;2022-11-02T09:26:24;99584.22;;;0.28;100.00
49627;BME280;35527;54.616;39.786;2022-11-02T09:29:28;99621.56;;;0.32;100.00
49627;BME280;35527;54.616;39.786;2022-11-02T09:32:31;99621.56;;;0.32;100.00
49627;BME280;35527;54.616;39.786;2022-11-02T09:35:47;99629.19;;;0.41;100.00
49627;BME280;35527;54.616;39.786;2022-11-02T09:38:50;99627.47;;;0.51;100.00
49627;BME280;35527;54.616;39.786;2022-11-02T09:42:21;99625.78;;;0.49;100.00
49627;BME280;35527;54.616;39.786;2022-11-02T09:45:26;99624.97;;;0.27;100.00
49627;BME280;35527;54.616;39.786;2022-11-02T09:48:50;99619.88;;;0.22;100.00
49627;BME280;35527;54.616;39.786;2022-11-02T09:51:58;99619.88;;;0.27;100.00
49627;BME280;35527;54.616;39.786;2022-11-02T09:55:04;99635.13;;;0.42;100.00
49627;BME280;35527;54.616;39.786;2022-11-02T09:58:17;99628.34;;;0.55;100.00
49627;BME280;35527;54.616;39.786;2022-11-02T10:01:38;99627.47;;;0.63;100.00
49627;BME280;35527;54.616;39.786;2022-11-02T10:08:25;99596.13;;;0.18;100.00
49627;BME280;35527;54.616;39.786;2022-11-02T10:11:56;99609.69;;;0.47;100.00
49627;BME280;35527;54.616;39.786;2022-11-02T10:15:16;99597.81;;;0.32;100.00
49627;BME280;35527;54.616;39.786;2022-11-02T10:18:27;99607.16;;;0.24;100.00
49627;BME280;35527;54.616;39.786;2022-11-02T10:21:37;99603.75;;;0.21;100.00
49627;BME280;35527;54.616;39.786;2022-11-02T10:24:45;99602.91;;;0.24;100.00
49627;BME280;35527;54.616;39.786;2022-11-02T10:28:00;99599.50;;;0.31;100.00
49627;BME280;35527;54.616;39.786;2022-11-02T10:31:24;99608.84;;;0.43;100.00
49627;BME280;35527;54.616;39.786;2022-11-02T10:34:29;99610.50;;;0.49;100.00
49627;BME280;35527;54.616;39.786;2022-11-02T10:38:07;99622.41;;;0.57;100.00
49627;BME280;35527;54.616;39.786;2022-11-02T10:41:12;99629.19;;;0.58;100.00
49627;BME280;35527;54.616;39.786;2022-11-02T10:51:17;99619.03;;;0.43;100.00
49627;BME280;35527;54.616;39.786;2022-11-02T10:54:21;99611.38;;;0.40;100.00
49627;BME280;35527;54.616;39.786;2022-11-02T10:57:26;99613.09;;;0.29;100.00
49627;BME280;35527;54.616;39.786;2022-11-02T11:00:35;99617.34;;;0.24;100.00
49627;BME280;35527;54.616;39.786;2022-11-02T11:07:05;99613.06;;;0.33;100.00
49627;BME280;35527;54.616;39.786;2022-11-02T11:10:14;99620.75;;;0.29;100.00
49627;BME280;35527;54.616;39.786;2022-11-02T11:13:21;99599.53;;;0.04;100.00
49627;BME280;35527;54.616;39.786;2022-11-02T11:16:52;99609.69;;;0.08;100.00
49627;BME280;35527;54.616;39.786;2022-11-02T11:20:00;99606.31;;;0.06;100.00
49627;BME280;35527;54.616;39.786;2022-11-02T11:23:22;99579.19;;;0.07;100.00
49627;BME280;35527;54.616;39.786;2022-11-02T11:26:27;99601.22;;;0.14;100.00
49627;BME280;35527;54.616;39.786;2022-11-02T11:29:38;99600.34;;;0.06;100.00
49627;BME280;35527;54.616;39.786;2022-11-02T11:32:46;99589.34;;;-0.07;100.00
49627;BME280;35527;54.616;39.786;2022-11-02T11:35:50;99558.84;;;-0.19;100.00
49627;BME280;35527;54.616;39.786;2022-11-02T11:39:03;99604.59;;;-0.04;100.00
49627;BME280;35527;54.616;39.786;2022-11-02T11:42:16;99587.66;;;-0.16;100.00
49627;BME280;35527;54.616;39.786;2022-11-02T11:45:22;99606.31;;;-0.08;100.00
49627;BME280;35527;54.616;39.786;2022-11-02T11:48:45;99604.63;;;-0.06;100.00
49627;BME280;35527;54.616;39.786;2022-11-02T11:51:51;99605.44;;;-0.04;100.00
49627;BME280;35527;54.616;39.786;2022-11-02T11:55:21;99608.00;;;-0.02;100.00
49627;BME280;35527;54.616;39.786;2022-11-02T11:58:31;99568.16;;;-0.18;100.00
49627;BME280;35527;54.616;39.786;2022-11-02T12:01:40;99608.03;;;0.09;100.00
49627;BME280;35527;54.616;39.786;2022-11-02T12:04:45;99600.38;;;0.07;100.00
49627;BME280;35527;54.616;39.786;2022-11-02T12:14:12;99621.56;;;-0.05;100.00
49627;BME280;35527;54.616;39.786;2022-11-02T12:31:43;99619.00;;;-0.15;100.00
49627;BME280;35527;54.616;39.786;2022-11-02T12:45:17;99625.78;;;-0.25;100.00
49627;BME280;35527;54.616;39.786;2022-11-02T12:48:53;99631.69;;;-0.23;100.00
49627;BME280;35527;54.616;39.786;2022-11-02T12:55:25;99625.78;;;-0.27;100.00
49627;BME280;35527;54.616;39.786;2022-11-02T12:58:38;99627.50;;;-0.22;100.00
49627;BME280;35527;54.616;39.786;2022-11-02T13:01:46;99626.63;;;-0.31;100.00
49627;BME280;35527;54.616;39.786;2022-11-02T13:05:17;99629.16;;;-0.29;100.00
49627;BME280;35527;54.616;39.786;2022-11-02T13:11:56;99631.69;;;-0.41;100.00
49627;BME280;35527;54.616;39.786;2022-11-02T13:15:17;99624.91;;;-0.42;100.00
49627;BME280;35527;54.616;39.786;2022-11-02T13:18:28;99622.38;;;-0.46;100.00
49627;BME280;35527;54.616;39.786;2022-11-02T13:21:36;99588.41;;;-0.69;100.00
49627;BME280;35527;54.616;39.786;2022-11-02T13:24:56;99609.66;;;-0.46;100.00
49627;BME280;35527;54.616;39.786;2022-11-02T13:28:04;99569.75;;;-0.70;100.00
49627;BME280;35527;54.616;39.786;2022-11-02T13:31:33;99621.53;;;-0.40;100.00
49627;BME280;35527;54.616;39.786;2022-11-02T13:34:43;99621.50;;;-0.51;100.00
49627;BME280;35527;54.616;39.786;2022-11-02T13:37:52;99621.50;;;-0.54;100.00
49627;BME280;35527;54.616;39.786;2022-11-02T13:44:49;99632.47;;;-0.55;100.00
49627;BME280;35527;54.616;39.786;2022-11-02T13:51:52;99639.28;;;-0.57;100.00
49627;BME280;35527;54.616;39.786;2022-11-02T13:55:00;99638.38;;;-0.70;100.00
49627;BME280;35527;54.616;39.786;2022-11-02T13:58:05;99637.53;;;-0.69;100.00
49627;BME280;35527;54.616;39.786;2022-11-02T14:01:14;99642.59;;;-0.70;100.00
49627;BME280;35527;54.616;39.786;2022-11-02T14:04:20;99640.91;;;-0.74;100.00
49627;BME280;35527;54.616;39.786;2022-11-02T14:07:34;99634.09;;;-0.81;100.00
49627;BME280;35527;54.616;39.786;2022-11-02T14:10:40;99623.88;;;-0.89;100.00
49627;BME280;35527;54.616;39.786;2022-11-02T14:16:58;99620.44;;;-1.03;100.00
49627;BME280;35527;54.616;39.786;2022-11-02T14:20:34;99641.66;;;-0.94;100.00
49627;BME280;35527;54.616;39.786;2022-11-02T14:23:42;99610.25;;;-1.09;100.00
49627;BME280;35527;54.616;39.786;2022-11-02T14:26:55;99624.69;;;-1.05;100.00
49627;BME280;35527;54.616;39.786;2022-11-02T14:29:59;99642.44;;;-1.08;100.00
49627;BME280;35527;54.616;39.786;2022-11-02T14:33:10;99650.09;;;-1.02;100.00
49627;BME280;35527;54.616;39.786;2022-11-02T14:39:50;99651.78;;;-1.03;100.00
49627;BME280;35527;54.616;39.786;2022-11-02T14:50:05;99644.22;;;-0.91;100.00
49627;BME280;35527;54.616;39.786;2022-11-02T14:53:25;99646.72;;;-0.95;100.00
49627;BME280;35527;54.616;39.786;2022-11-02T15:00:18;99636.47;;;-1.15;100.00
49627;BME280;35527;54.616;39.786;2022-11-02T15:06:26;99639.84;;;-1.16;100.00
49627;BME280;35527;54.616;39.786;2022-11-02T15:09:55;99624.56;;;-1.27;100.00
49627;BME280;35527;54.616;39.786;2022-11-02T15:16:21;99639.03;;;-1.09;100.00
49627;BME280;35527;54.616;39.786;2022-11-02T15:19:46;99606.00;;;-1.20;100.00
49627;BME280;35527;54.616;39.786;2022-11-02T15:22:55;99610.16;;;-1.26;100.00
49627;BME280;35527;54.616;39.786;2022-11-02T15:26:04;99617.78;;;-1.26;100.00
49627;BME280;35527;54.616;39.786;2022-11-02T15:29:42;99622.91;;;-1.22;100.00
49627;BME280;35527;54.616;39.786;2022-11-02T15:32:59;99638.97;;;-1.21;100.00
49627;BME280;35527;54.616;39.786;2022-11-02T15:36:07;99631.31;;;-1.29;100.00
49627;BME280;35527;54.616;39.786;2022-11-02T15:39:13;99645.75;;;-1.25;100.00
49627;BME280;35527;54.616;39.786;2022-11-02T15:46:32;99645.72;;;-1.23;100.00
49627;BME280;35527;54.616;39.786;2022-11-02T16:03:18;99635.56;;;-1.28;100.00
49627;BME280;35527;54.616;39.786;2022-11-02T16:06:43;99657.59;;;-1.22;100.00
49627;BME280;35527;54.616;39.786;2022-11-02T16:09:49;99646.59;;;-1.24;100.00
49627;BME280;35527;54.616;39.786;2022-11-02T16:13:17;99652.53;;;-1.22;100.00
49627;BME280;35527;54.616;39.786;2022-11-02T16:16:21;99639.72;;;-1.34;100.00
49627;BME280;35527;54.616;39.786;2022-11-02T16:19:51;99645.69;;;-1.34;100.00
49627;BME280;35527;54.616;39.786;2022-11-02T16:22:57;99648.22;;;-1.32;100.00
49627;BME280;35527;54.616;39.786;2022-11-02T16:26:04;99644.00;;;-1.33;100.00
49627;BME280;35527;54.616;39.786;2022-11-02T16:29:24;99653.31;;;-1.26;100.00
49627;BME280;35527;54.616;39.786;2022-11-02T16:32:30;99624.50;;;-1.34;100.00
49627;BME280;35527;54.616;39.786;2022-11-02T16:35:34;99642.34;;;-1.25;100.00
49627;BME280;35527;54.616;39.786;2022-11-02T16:38:38;99618.59;;;-1.33;100.00
49627;BME280;35527;54.616;39.786;2022-11-02T16:41:50;99616.06;;;-1.33;100.00
49627;BME280;35527;54.616;39.786;2022-11-02T16:44:58;99638.97;;;-1.21;100.00
49627;BME280;35527;54.616;39.786;2022-11-02T16:51:17;99633.03;;;-1.26;100.00
49627;BME280;35527;54.616;39.786;2022-11-02T16:54:27;99655.06;;;-1.19;100.00
49627;BME280;35527;54.616;39.786;2022-11-02T16:57:43;99648.31;;;-1.20;100.00
49627;BME280;35527;54.616;39.786;2022-11-02T17:01:00;99657.56;;;-1.28;100.00
49627;BME280;35527;54.616;39.786;2022-11-02T17:04:23;99649.06;;;-1.33;100.00
49627;BME280;35527;54.616;39.786;2022-11-02T17:07:39;99654.16;;;-1.33;100.00
49627;BME280;35527;54.616;39.786;2022-11-02T17:10:46;99655.84;;;-1.34;100.00
49627;BME280;35527;54.616;39.786;2022-11-02T17:13:53;99654.97;;;-1.34;100.00
49627;BME280;35527;54.616;39.786;2022-11-02T17:17:26;99658.34;;;-1.36;100.00
49627;BME280;35527;54.616;39.786;2022-11-02T17:20:32;99660.00;;;-1.45;100.00
49627;BME280;35527;54.616;39.786;2022-11-02T17:23:37;99673.56;;;-1.39;100.00
49627;BME280;35527;54.616;39.786;2022-11-02T17:26:40;99683.75;;;-1.34;100.00
49627;BME280;35527;54.616;39.786;2022-11-02T17:29:43;99665.13;;;-1.36;100.00
49627;BME280;35527;54.616;39.786;2022-11-02T17:32:51;99665.94;;;-1.42;100.00
49627;BME280;35527;54.616;39.786;2022-11-02T17:36:03;99663.41;;;-1.40;100.00
49627;BME280;35527;54.616;39.786;2022-11-02T17:39:12;99666.81;;;-1.37;100.00
49627;BME280;35527;54.616;39.786;2022-11-02T17:42:16;99660.03;;;-1.34;100.00
49627;BME280;35527;54.616;39.786;2022-11-02T17:45:39;99654.94;;;-1.42;100.00
49627;BME280;35527;54.616;39.786;2022-11-02T17:48:42;99669.34;;;-1.35;100.00
49627;BME280;35527;54.616;39.786;2022-11-02T17:51:46;99666.84;;;-1.33;100.00
49627;BME280;35527;54.616;39.786;2022-11-02T17:54:49;99665.13;;;-1.34;100.00
49627;BME280;35527;54.616;39.786;2022-11-02T17:57:55;99653.28;;;-1.36;100.00
49627;BME280;35527;54.616;39.786;2022-11-02T18:01:00;99633.75;;;-1.47;100.00
49627;BME280;35527;54.616;39.786;2022-11-02T18:04:04;99663.47;;;-1.34;100.00
49627;BME280;35527;54.616;39.786;2022-11-02T18:07:07;99637.97;;;-1.48;100.00
49627;BME280;35527;54.616;39.786;2022-11-02T18:10:13;99654.97;;;-1.36;100.00
49627;BME280;35527;54.616;39.786;2022-11-02T18:13:20;99636.25;;;-1.53;100.00
49627;BME280;35527;54.616;39.786;2022-11-02T18:16:23;99654.00;;;-1.52;100.00
49627;BME280;35527;54.616;39.786;2022-11-02T18:19:26;99655.75;;;-1.43;100.00
49627;BME280;35527;54.616;39.786;2022-11-02T18:22:30;99643.91;;;-1.44;100.00
49627;BME280;35527;54.616;39.786;2022-11-02T18:25:36;99654.91;;;-1.48;100.00
49627;BME280;35527;54.616;39.786;2022-11-02T18:28:39;99668.50;;;-1.39;100.00
49627;BME280;35527;54.616;39.786;2022-11-02T18:31:45;99649.75;;;-1.56;100.00